createdAt,value
2023-01-29T00:01:49.085Z,7.63
2023-01-29T00:04:15.783Z,5.53
2023-01-29T00:06:42.562Z,4.07
2023-01-29T00:09:09.425Z,5.22
2023-01-29T00:11:36.216Z,6.22
2023-01-29T00:14:02.915Z,5.93
2023-01-29T00:16:29.608Z,4.88
2023-01-29T00:18:56.282Z,4.47
2023-01-29T00:21:23.360Z,5.50
2023-01-29T00:23:50.963Z,7.35
2023-01-29T00:26:17.821Z,6.60
2023-01-29T00:28:47.930Z,7.82
2023-01-29T00:31:20.079Z,9.63
2023-01-29T00:33:47.426Z,10.45
2023-01-29T00:36:15.512Z,10.45
2023-01-29T00:38:42.213Z,6.88
2023-01-29T00:41:29.934Z,12.38
2023-01-29T00:44:15.573Z,9.73
2023-01-29T00:46:42.443Z,9.98
2023-01-29T00:49:09.167Z,11.00
2023-01-29T00:51:37.276Z,11.07
2023-01-29T00:54:06.675Z,11.52
2023-01-29T00:56:36.378Z,10.88
2023-01-29T00:59:04.030Z,12.82
2023-01-29T01:01:49.041Z,10.60
2023-01-29T01:04:15.803Z,11.85
2023-01-29T01:06:42.553Z,9.45
2023-01-29T01:09:29.393Z,14.60
2023-01-29T01:11:56.174Z,18.67
2023-01-29T01:14:22.830Z,9.18
2023-01-29T01:16:49.620Z,10.75
2023-01-29T01:19:16.511Z,10.95
2023-01-29T01:21:45.462Z,12.55
2023-01-29T01:24:13.064Z,9.27
2023-01-29T01:26:40.057Z,9.30
2023-01-29T01:29:06.896Z,9.40
2023-01-29T01:31:33.594Z,8.50
2023-01-29T01:34:00.966Z,8.00
2023-01-29T01:36:27.649Z,10.00
2023-01-29T01:38:54.882Z,10.45
2023-01-29T01:41:22.809Z,7.95
2023-01-29T01:44:00.723Z,10.07
2023-01-29T01:46:35.973Z,8.20
2023-01-29T01:49:09.797Z,6.10
2023-01-29T01:51:39.853Z,6.18
2023-01-29T01:54:09.425Z,8.50
2023-01-29T01:56:42.726Z,7.82
2023-01-29T01:59:12.226Z,5.78
2023-01-29T02:01:41.739Z,5.95
2023-01-29T02:04:29.738Z,7.85
2023-01-29T02:07:16.622Z,6.25
2023-01-29T02:09:51.373Z,7.03
2023-01-29T02:12:18.846Z,6.15
2023-01-29T02:14:45.895Z,5.80
2023-01-29T02:17:15.392Z,8.43
2023-01-29T02:20:03.613Z,5.97
2023-01-29T02:22:56.488Z,5.88
2023-01-29T02:25:37.972Z,8.65
2023-01-29T02:28:36.686Z,5.05
2023-01-29T02:31:19.176Z,4.50
2023-01-29T02:34:06.058Z,8.20
2023-01-29T02:36:46.860Z,6.78
2023-01-29T02:39:24.247Z,6.85
2023-01-29T02:42:29.696Z,8.68
2023-01-29T02:45:00.345Z,6.00
2023-01-29T02:47:40.147Z,6.95
2023-01-29T02:50:15.921Z,5.05
2023-01-29T02:53:12.821Z,5.38
2023-01-29T02:55:55.771Z,5.18
2023-01-29T02:58:34.951Z,6.13
2023-01-29T03:01:10.169Z,7.40
2023-01-29T03:03:40.982Z,6.80
2023-01-29T03:06:20.032Z,6.13
2023-01-29T03:08:55.482Z,5.65
2023-01-29T03:11:22.368Z,5.18
2023-01-29T03:14:16.829Z,8.05
2023-01-29T03:16:53.791Z,6.55
2023-01-29T03:19:39.972Z,7.28
2023-01-29T03:22:16.653Z,9.30
2023-01-29T03:25:16.737Z,6.97
2023-01-29T03:28:07.133Z,8.02
2023-01-29T03:31:01.087Z,4.88
2023-01-29T03:33:41.029Z,8.02
2023-01-29T03:36:16.385Z,9.23
2023-01-29T03:38:43.854Z,8.25
2023-01-29T03:41:19.541Z,5.45
2023-01-29T03:44:21.758Z,6.35
2023-01-29T03:47:04.724Z,10.45
2023-01-29T03:49:52.211Z,8.40
2023-01-29T03:52:32.148Z,5.95
2023-01-29T03:55:18.288Z,11.45
2023-01-29T03:57:59.813Z,5.28
2023-01-29T04:00:29.801Z,4.97
2023-01-29T04:03:17.727Z,4.90
2023-01-29T04:05:53.302Z,8.52
2023-01-29T04:08:29.847Z,7.20
2023-01-29T04:11:03.866Z,6.07
2023-01-29T04:13:33.698Z,7.72
2023-01-29T04:16:01.610Z,9.45
2023-01-29T04:18:47.933Z,6.47
2023-01-29T04:21:15.703Z,5.63
2023-01-29T04:23:43.876Z,6.88
2023-01-29T04:26:22.979Z,5.28
2023-01-29T04:28:54.123Z,7.32
2023-01-29T04:31:23.581Z,7.05
2023-01-29T04:34:12.860Z,9.80
2023-01-29T04:36:53.708Z,8.23
2023-01-29T04:39:28.255Z,5.95
2023-01-29T04:42:00.834Z,8.95
2023-01-29T04:44:49.760Z,8.40
2023-01-29T04:47:36.746Z,8.18
2023-01-29T04:50:19.002Z,7.40
2023-01-29T04:52:54.831Z,9.18
2023-01-29T04:55:26.726Z,9.85
2023-01-29T04:58:14.765Z,6.95
2023-01-29T05:00:43.443Z,8.18
2023-01-29T05:03:12.413Z,7.38
2023-01-29T05:05:41.621Z,8.90
2023-01-29T05:08:09.529Z,7.95
2023-01-29T05:10:36.978Z,8.27
2023-01-29T05:13:05.825Z,7.20
2023-01-29T05:15:38.585Z,7.38
2023-01-29T05:18:08.783Z,6.65
2023-01-29T05:20:38.098Z,9.95
2023-01-29T05:23:05.029Z,7.38
2023-01-29T05:25:33.071Z,7.18
2023-01-29T05:28:06.336Z,10.18
2023-01-29T05:33:00.655Z,8.13
2023-01-29T05:35:28.503Z,9.27
2023-01-29T05:37:58.213Z,8.60
2023-01-29T05:40:25.256Z,8.85
2023-01-29T05:42:52.078Z,7.18
2023-01-29T05:45:18.815Z,8.13
2023-01-29T05:47:46.277Z,7.65
2023-01-29T05:50:14.117Z,8.48
2023-01-29T05:52:40.982Z,8.88
2023-01-29T05:55:09.383Z,9.38
2023-01-29T05:57:36.163Z,7.78
2023-01-29T06:00:04.432Z,5.97
2023-01-29T06:02:39.437Z,13.75
2023-01-29T06:05:06.487Z,8.60
2023-01-29T06:07:33.177Z,6.43
2023-01-29T06:09:59.815Z,7.10
2023-01-29T06:12:27.453Z,8.50
2023-01-29T06:14:54.079Z,5.60
2023-01-29T06:17:20.743Z,7.45
2023-01-29T06:19:47.465Z,6.93
2023-01-29T06:22:14.065Z,8.70
2023-01-29T06:24:40.743Z,10.52
2023-01-29T06:27:07.521Z,9.57
2023-01-29T06:29:34.271Z,10.55
2023-01-29T06:32:01.155Z,7.55
2023-01-29T06:34:27.804Z,9.10
2023-01-29T06:36:54.470Z,11.02
2023-01-29T06:39:21.178Z,9.32
2023-01-29T06:41:47.881Z,6.80
2023-01-29T06:44:14.726Z,8.98
2023-01-29T06:46:41.334Z,10.57
2023-01-29T06:49:08.052Z,7.90
2023-01-29T06:51:34.861Z,7.63
2023-01-29T06:54:01.580Z,11.07
2023-01-29T06:56:28.255Z,7.90
2023-01-29T06:58:54.949Z,8.13
2023-01-29T07:01:35.188Z,10.73
2023-01-29T07:04:02.966Z,10.60
2023-01-29T07:06:30.283Z,11.13
2023-01-29T07:08:57.048Z,8.82
2023-01-29T07:11:23.928Z,11.88
2023-01-29T07:13:50.596Z,9.30
2023-01-29T07:16:19.051Z,9.68
2023-01-29T07:18:45.868Z,9.63
2023-01-29T07:21:12.530Z,9.10
2023-01-29T07:23:39.155Z,11.35
2023-01-29T07:26:06.333Z,9.05
2023-01-29T07:28:36.870Z,8.32
2023-01-29T07:31:04.486Z,10.80
2023-01-29T07:33:31.720Z,9.80
2023-01-29T07:35:58.394Z,11.77
2023-01-29T07:38:25.438Z,8.20
2023-01-29T07:40:53.063Z,9.80
2023-01-29T07:43:19.839Z,11.95
2023-01-29T07:45:46.530Z,9.95
2023-01-29T07:48:13.630Z,9.63
2023-01-29T07:50:40.890Z,10.57
2023-01-29T07:53:07.717Z,12.00
2023-01-29T07:55:34.436Z,9.95
2023-01-29T07:58:02.997Z,9.75
2023-01-29T08:00:31.463Z,9.43
2023-01-29T08:03:05.947Z,11.20
2023-01-29T08:05:32.818Z,9.20
2023-01-29T08:08:06.503Z,11.20
2023-01-29T08:10:35.125Z,12.20
2023-01-29T08:13:02.683Z,16.00
2023-01-29T08:15:29.814Z,13.90
2023-01-29T08:20:43.593Z,13.20
2023-01-29T08:23:15.137Z,11.95
2023-01-29T08:25:41.962Z,13.48
2023-01-29T08:28:08.954Z,13.95
2023-01-29T08:30:36.057Z,13.52
2023-01-29T08:33:03.928Z,15.60
2023-01-29T08:35:30.881Z,18.98
2023-01-29T08:38:03.140Z,19.88
2023-01-29T08:40:32.116Z,19.43
2023-01-29T08:43:03.525Z,23.85
2023-01-29T08:45:34.059Z,21.93
2023-01-29T08:48:00.995Z,18.40
2023-01-29T08:50:27.783Z,16.40
2023-01-29T08:52:59.065Z,20.13
2023-01-29T08:55:26.311Z,13.07
2023-01-29T08:57:53.001Z,11.52
2023-01-29T09:00:20.047Z,15.75
2023-01-29T09:02:46.762Z,10.63
2023-01-29T09:05:13.467Z,11.27
2023-01-29T09:07:40.179Z,11.93
2023-01-29T09:10:07.086Z,10.25
2023-01-29T09:12:33.777Z,7.38
2023-01-29T09:15:00.437Z,10.52
2023-01-29T09:17:27.115Z,9.32
2023-01-29T09:19:53.734Z,10.55
2023-01-29T09:22:20.910Z,11.63
2023-01-29T09:24:47.583Z,9.27
2023-01-29T09:27:14.296Z,11.13
2023-01-29T09:29:41.062Z,8.15
2023-01-29T09:32:07.724Z,10.25
2023-01-29T09:34:34.872Z,8.70
2023-01-29T09:37:01.519Z,11.07
2023-01-29T09:39:28.295Z,8.63
2023-01-29T09:42:13.818Z,8.07
2023-01-29T09:44:54.129Z,9.80
2023-01-29T09:47:24.362Z,9.40
2023-01-29T09:50:05.680Z,7.47
2023-01-29T09:52:35.894Z,11.68
2023-01-29T09:55:02.532Z,7.78
2023-01-29T09:57:42.616Z,5.10
2023-01-29T10:00:16.245Z,13.10
2023-01-29T10:03:10.485Z,7.78
2023-01-29T10:05:52.592Z,6.95
2023-01-29T10:08:45.512Z,9.10
2023-01-29T10:11:21.018Z,6.70
2023-01-29T10:14:08.091Z,7.60
2023-01-29T10:16:50.042Z,9.95
2023-01-29T10:19:39.551Z,7.00
2023-01-29T10:22:31.122Z,7.07
2023-01-29T10:25:00.844Z,6.78
2023-01-29T10:27:34.571Z,5.18
2023-01-29T10:30:03.614Z,5.82
2023-01-29T10:32:31.232Z,6.97
2023-01-29T10:35:02.961Z,8.02
2023-01-29T10:37:41.116Z,7.32
2023-01-29T10:40:29.498Z,8.25
2023-01-29T10:43:06.358Z,7.32
2023-01-29T10:45:48.247Z,8.70
2023-01-29T10:48:27.707Z,6.82
2023-01-29T10:51:25.274Z,6.20
2023-01-29T10:54:10.283Z,7.65
2023-01-29T10:56:55.250Z,7.78
2023-01-29T10:59:39.638Z,8.77
2023-01-29T11:02:18.235Z,6.43
2023-01-29T11:04:45.576Z,19.48
2023-01-29T11:07:13.027Z,11.55
2023-01-29T11:09:51.540Z,6.28
2023-01-29T11:12:22.791Z,7.95
2023-01-29T11:15:11.685Z,7.80
2023-01-29T11:17:38.417Z,8.75
2023-01-29T11:20:06.893Z,16.85
2023-01-29T11:22:35.140Z,8.23
2023-01-29T11:25:10.013Z,9.63
2023-01-29T11:27:44.199Z,7.88
2023-01-29T11:30:24.163Z,8.35
2023-01-29T11:32:56.935Z,8.68
2023-01-29T11:35:25.490Z,10.88
2023-01-29T11:37:52.184Z,11.70
2023-01-29T11:40:19.078Z,7.93
2023-01-29T11:42:47.077Z,9.73
2023-01-29T11:45:22.729Z,9.00
2023-01-29T11:47:54.150Z,9.52
2023-01-29T11:50:24.605Z,8.80
2023-01-29T11:52:51.734Z,8.20
2023-01-29T11:55:22.074Z,11.02
2023-01-29T11:57:51.611Z,8.82
2023-01-29T12:00:27.075Z,7.82
2023-01-29T12:02:53.635Z,11.75
2023-01-29T12:05:23.727Z,7.63
2023-01-29T12:08:01.578Z,9.25
2023-01-29T12:10:42.355Z,9.95
2023-01-29T12:13:19.959Z,7.40
2023-01-29T12:15:48.178Z,7.90
2023-01-29T12:18:38.406Z,8.38
2023-01-29T12:21:16.002Z,9.88
2023-01-29T12:24:06.783Z,8.55
2023-01-29T12:26:36.847Z,9.50
2023-01-29T12:29:31.866Z,7.32
2023-01-29T12:32:05.885Z,8.10
2023-01-29T12:34:46.327Z,9.57
2023-01-29T12:37:21.850Z,8.27
2023-01-29T12:39:49.837Z,10.35
2023-01-29T12:42:18.095Z,8.93
2023-01-29T12:44:47.711Z,8.45
2023-01-29T12:47:57.709Z,8.32
2023-01-29T12:50:29.022Z,8.35
2023-01-29T12:53:20.871Z,8.57
2023-01-29T12:55:55.300Z,10.38
2023-01-29T12:58:44.488Z,9.27
2023-01-29T13:01:15.615Z,10.40
2023-01-29T13:04:06.341Z,9.15
2023-01-29T13:06:42.790Z,8.88
2023-01-29T13:09:17.315Z,10.20
2023-01-29T13:11:52.350Z,9.73
2023-01-29T13:14:38.850Z,9.90
2023-01-29T13:17:18.529Z,6.88
2023-01-29T13:19:48.024Z,10.13
2023-01-29T13:22:22.762Z,7.80
2023-01-29T13:24:58.814Z,9.23
2023-01-29T13:27:32.181Z,9.70
2023-01-29T13:29:59.701Z,9.52
2023-01-29T13:32:28.572Z,10.70
2023-01-29T13:35:19.807Z,12.77
2023-01-29T13:37:49.292Z,9.85
2023-01-29T13:40:23.114Z,8.93
2023-01-29T13:42:50.393Z,7.90
2023-01-29T13:45:26.144Z,8.93
2023-01-29T13:47:53.278Z,9.35
2023-01-29T13:50:33.509Z,9.82
2023-01-29T13:53:02.289Z,9.02
2023-01-29T13:55:34.935Z,10.52
2023-01-29T13:58:02.930Z,8.82
2023-01-29T14:00:35.499Z,10.57
2023-01-29T14:03:05.100Z,8.52
2023-01-29T14:05:31.821Z,12.40
2023-01-29T14:08:14.980Z,11.38
2023-01-29T14:10:42.729Z,11.75
2023-01-29T14:13:15.621Z,11.60
2023-01-29T14:15:42.410Z,11.85
2023-01-29T14:18:09.037Z,13.02
2023-01-29T14:20:51.821Z,12.55
2023-01-29T14:23:27.454Z,10.73
2023-01-29T14:25:54.166Z,13.55
2023-01-29T14:28:24.000Z,11.48
2023-01-29T14:30:51.250Z,12.35
2023-01-29T14:33:39.434Z,11.20
2023-01-29T14:36:13.467Z,11.07
2023-01-29T14:38:52.520Z,10.70
2023-01-29T14:41:31.882Z,11.25
2023-01-29T14:44:35.836Z,11.35
2023-01-29T14:47:04.748Z,10.48
2023-01-29T14:49:49.373Z,11.43
2023-01-29T14:52:17.362Z,10.65
2023-01-29T14:54:46.395Z,10.90
2023-01-29T14:57:15.309Z,10.93
2023-01-29T14:59:54.360Z,10.25
2023-01-29T15:02:42.114Z,11.85
2023-01-29T15:05:21.827Z,12.55
2023-01-29T15:08:02.317Z,11.07
2023-01-29T15:10:43.074Z,11.68
2023-01-29T15:13:24.887Z,13.90
2023-01-29T15:15:57.975Z,12.35
2023-01-29T15:21:05.939Z,12.07
2023-01-29T15:23:34.179Z,12.80
2023-01-29T15:26:06.558Z,12.68
2023-01-29T15:28:34.641Z,12.77
2023-01-29T15:31:07.893Z,13.57
2023-01-29T15:36:09.540Z,11.48
2023-01-29T15:38:36.368Z,16.52
2023-01-29T15:41:16.665Z,14.20
2023-01-29T15:43:45.801Z,19.33
2023-01-29T15:46:20.863Z,20.15
2023-01-29T15:48:49.243Z,17.58
2023-01-29T15:51:17.950Z,11.30
2023-01-29T15:53:49.178Z,11.02
2023-01-29T15:56:18.814Z,8.27
2023-01-29T15:58:48.458Z,9.43
2023-01-29T16:01:15.670Z,9.93
2023-01-29T16:03:42.806Z,9.52
2023-01-29T16:06:09.813Z,10.30
2023-01-29T16:08:36.707Z,10.98
2023-01-29T16:11:05.198Z,10.77
2023-01-29T16:13:34.295Z,11.25
2023-01-29T16:16:03.505Z,13.57
2023-01-29T16:18:47.718Z,15.20
2023-01-29T16:21:33.275Z,12.52
2023-01-29T16:24:02.736Z,17.15
2023-01-29T16:26:34.473Z,11.85
2023-01-29T16:29:10.451Z,12.48
2023-01-29T16:31:38.040Z,13.15
2023-01-29T16:34:24.636Z,14.93
2023-01-29T16:36:53.427Z,12.93
2023-01-29T16:39:23.320Z,10.55
2023-01-29T16:42:20.009Z,15.57
2023-01-29T16:44:51.528Z,14.88
2023-01-29T16:47:34.930Z,13.43
2023-01-29T16:50:24.316Z,13.45
2023-01-29T16:53:11.532Z,14.07
2023-01-29T16:55:45.520Z,13.20
2023-01-29T16:58:32.406Z,15.50
2023-01-29T17:01:03.238Z,14.80
2023-01-29T17:03:31.931Z,13.30
2023-01-29T17:05:59.417Z,15.65
2023-01-29T17:08:30.869Z,14.40
2023-01-29T17:10:57.828Z,19.85
2023-01-29T17:13:30.789Z,14.65
2023-01-29T17:16:04.852Z,14.00
2023-01-29T17:18:31.738Z,14.02
2023-01-29T17:20:58.394Z,18.70
2023-01-29T17:23:25.093Z,16.55
2023-01-29T17:25:51.804Z,16.75
2023-01-29T17:28:18.603Z,15.70
2023-01-29T17:30:56.569Z,14.23
2023-01-29T17:33:31.951Z,16.65
2023-01-29T17:35:58.681Z,15.57
2023-01-29T17:38:26.714Z,19.45
2023-01-29T17:40:58.119Z,14.88
2023-01-29T17:43:24.817Z,15.90
2023-01-29T17:45:51.765Z,13.50
2023-01-29T17:48:22.335Z,17.40
2023-01-29T17:50:53.008Z,16.42
2023-01-29T17:53:21.187Z,17.20
2023-01-29T17:55:48.259Z,15.68
2023-01-29T17:58:23.694Z,15.80
2023-01-29T18:00:50.953Z,13.27
2023-01-29T18:03:17.649Z,15.43
2023-01-29T18:05:45.797Z,17.10
2023-01-29T18:08:21.104Z,14.80
2023-01-29T18:10:47.783Z,12.23
2023-01-29T18:13:14.538Z,15.50
2023-01-29T18:15:41.211Z,16.05
2023-01-29T18:18:12.523Z,16.13
2023-01-29T18:20:40.215Z,17.77
2023-01-29T18:23:08.060Z,18.67
2023-01-29T18:25:35.030Z,14.50
2023-01-29T18:28:02.020Z,18.30
2023-01-29T18:30:29.033Z,14.50
2023-01-29T18:32:55.800Z,18.35
2023-01-29T18:35:22.646Z,18.25
2023-01-29T18:37:49.650Z,18.63
2023-01-29T18:40:17.359Z,18.63
2023-01-29T18:42:44.993Z,16.90
2023-01-29T18:45:12.437Z,17.23
2023-01-29T18:47:39.849Z,17.65
2023-01-29T18:50:07.367Z,12.30
2023-01-29T18:52:34.398Z,12.02
2023-01-29T18:55:01.285Z,10.80
2023-01-29T18:58:26.020Z,10.18
2023-01-29T19:00:15.381Z,17.23
2023-01-29T19:02:42.901Z,16.75
2023-01-29T19:05:09.842Z,15.10
2023-01-29T19:07:36.577Z,14.95
2023-01-29T19:10:06.626Z,15.18
2023-01-29T19:12:34.310Z,15.68
2023-01-29T19:15:01.060Z,19.17
2023-01-29T19:17:27.730Z,18.58
2023-01-29T19:19:56.367Z,20.40
2023-01-29T19:22:23.066Z,15.45
2023-01-29T19:24:49.813Z,16.70
2023-01-29T19:27:16.541Z,22.50
2023-01-29T19:29:43.138Z,19.00
2023-01-29T19:32:09.911Z,17.90
2023-01-29T19:34:36.732Z,17.95
2023-01-29T19:37:03.701Z,16.70
2023-01-29T19:39:33.709Z,18.13
2023-01-29T19:42:01.349Z,21.83
2023-01-29T19:44:28.002Z,20.60
2023-01-29T19:46:54.639Z,24.63
2023-01-29T19:49:21.501Z,19.80
2023-01-29T19:51:48.181Z,16.67
2023-01-29T19:54:14.829Z,17.67
2023-01-29T19:56:41.539Z,17.17
2023-01-29T19:59:08.225Z,16.08
2023-01-29T20:01:34.963Z,16.92
2023-01-29T20:04:03.116Z,19.17
2023-01-29T20:06:33.009Z,18.00
2023-01-29T20:09:02.057Z,18.20
2023-01-29T20:11:29.131Z,20.08
2023-01-29T20:13:55.849Z,19.08
2023-01-29T20:16:22.690Z,21.67
2023-01-29T20:18:49.434Z,20.17
2023-01-29T20:21:20.477Z,25.05
2023-01-29T20:23:50.191Z,30.40
2023-01-29T20:26:17.233Z,27.13
2023-01-29T20:28:46.642Z,31.80
2023-01-29T20:31:14.069Z,30.45
2023-01-29T20:33:40.678Z,21.52
2023-01-29T20:36:09.921Z,20.85
2023-01-29T20:38:36.684Z,24.52
2023-01-29T20:41:13.245Z,16.30
2023-01-29T20:43:40.389Z,19.10
2023-01-29T20:46:07.403Z,18.20
2023-01-29T20:48:34.135Z,20.45
2023-01-29T20:51:06.302Z,22.45
2023-01-29T20:53:32.937Z,20.83
2023-01-29T20:55:59.610Z,19.83
2023-01-29T20:58:26.529Z,24.48
2023-01-29T21:00:53.229Z,26.27
2023-01-29T21:03:19.889Z,26.42
2023-01-29T21:05:46.633Z,28.85
2023-01-29T21:08:13.272Z,27.70
2023-01-29T21:10:41.464Z,22.45
2023-01-29T21:13:09.205Z,26.50
2023-01-29T21:15:35.868Z,27.13
2023-01-29T21:18:04.400Z,24.02
2023-01-29T21:20:31.690Z,26.92
2023-01-29T21:22:58.385Z,24.48
2023-01-29T21:25:25.074Z,25.70
2023-01-29T21:27:51.715Z,23.02
2023-01-29T21:30:18.801Z,25.88
2023-01-29T21:32:46.081Z,26.55
2023-01-29T21:35:13.042Z,22.48
2023-01-29T21:37:39.666Z,23.63
2023-01-29T21:40:07.170Z,25.50
2023-01-29T21:42:52.447Z,24.30
2023-01-29T21:45:19.479Z,23.83
2023-01-29T21:47:46.408Z,26.30
2023-01-29T21:50:13.823Z,24.95
2023-01-29T21:52:40.561Z,24.02
2023-01-29T21:55:07.611Z,28.13
2023-01-29T21:57:34.306Z,25.65
2023-01-29T22:00:01.038Z,26.63
2023-01-29T22:02:30.793Z,28.42
2023-01-29T22:05:12.438Z,22.40
2023-01-29T22:07:44.720Z,22.83
2023-01-29T22:10:12.381Z,25.90
2023-01-29T22:12:39.804Z,28.23
2023-01-29T22:15:07.447Z,27.27
2023-01-29T22:17:35.148Z,26.75
2023-01-29T22:20:02.219Z,32.47
2023-01-29T22:22:28.944Z,30.80
2023-01-29T22:24:57.612Z,25.15
2023-01-29T22:27:24.595Z,27.45
2023-01-29T22:29:51.446Z,30.58
2023-01-29T22:32:18.335Z,30.75
2023-01-29T22:34:45.018Z,30.40
2023-01-29T22:37:11.600Z,23.50
2023-01-29T22:39:38.238Z,26.50
2023-01-29T22:42:04.992Z,26.58
2023-01-29T22:44:31.610Z,27.80
2023-01-29T22:46:58.355Z,28.42
2023-01-29T22:49:25.680Z,23.80
2023-01-29T22:52:09.876Z,25.98
2023-01-29T22:54:41.812Z,24.02
2023-01-29T22:57:11.369Z,26.27
2023-01-29T22:59:38.506Z,23.90
2023-01-29T23:02:05.946Z,26.13
2023-01-29T23:04:32.791Z,25.25
2023-01-29T23:06:59.438Z,24.88
2023-01-29T23:09:26.219Z,26.63
2023-01-29T23:11:52.864Z,28.20
2023-01-29T23:14:19.576Z,25.83
2023-01-29T23:16:46.241Z,27.65
2023-01-29T23:19:12.961Z,24.58
2023-01-29T23:21:39.789Z,24.25
2023-01-29T23:24:07.983Z,26.02
2023-01-29T23:26:53.478Z,21.48
2023-01-29T23:29:20.461Z,25.42
2023-01-29T23:31:47.242Z,25.35
2023-01-29T23:34:14.396Z,22.70
2023-01-29T23:36:41.331Z,22.50
2023-01-29T23:39:08.139Z,24.48
2023-01-29T23:41:35.085Z,27.48
2023-01-29T23:44:01.837Z,25.13
2023-01-29T23:46:28.584Z,24.23
2023-01-29T23:48:55.347Z,26.60
2023-01-29T23:51:22.249Z,25.23
2023-01-29T23:53:48.899Z,27.38
2023-01-29T23:56:15.913Z,23.40
2023-01-29T23:58:42.637Z,24.15
